createdAt,value
2022-08-10T00:00:27.004Z,65.42
2022-08-10T00:01:27.013Z,65.15
2022-08-10T00:02:27.173Z,65.15
2022-08-10T00:03:26.970Z,65.25
2022-08-10T00:04:26.987Z,65.35
2022-08-10T00:05:26.897Z,65.35
2022-08-10T00:06:27.915Z,65.35
2022-08-10T00:07:26.907Z,64.84
2022-08-10T00:08:26.914Z,64.87
2022-08-10T00:09:26.966Z,66.36
2022-08-10T00:10:26.878Z,67.07
2022-08-10T00:11:26.961Z,68.37
2022-08-10T00:12:53.539Z,68.48
2022-08-10T00:13:27.891Z,67.47
2022-08-10T00:14:26.869Z,67.77
2022-08-10T00:15:53.339Z,67.27
2022-08-10T00:16:27.866Z,66.66
2022-08-10T00:17:26.887Z,66.63
2022-08-10T00:18:35.600Z,65.82
2022-08-10T00:19:27.852Z,66.33
2022-08-10T00:20:27.823Z,66.33
2022-08-10T00:21:27.198Z,65.49
2022-08-10T00:22:26.913Z,65.69
2022-08-10T00:23:26.932Z,67.16
2022-08-10T00:24:26.861Z,66.25
2022-08-10T00:25:26.844Z,66.36
2022-08-10T00:26:26.833Z,66.25
2022-08-10T00:28:00.881Z,66.02
2022-08-10T00:28:27.783Z,65.55
2022-08-10T00:29:26.779Z,66.13
2022-08-10T00:30:26.804Z,65.59
2022-08-10T00:31:26.763Z,66.22
2022-08-10T00:32:26.816Z,66.13
2022-08-10T00:33:26.774Z,64.81
2022-08-10T00:34:26.850Z,65.32
2022-08-10T00:35:26.781Z,65.82
2022-08-10T00:36:26.744Z,66.02
2022-08-10T00:37:27.749Z,65.22
2022-08-10T00:38:26.755Z,65.72
2022-08-10T00:39:26.886Z,66.36
2022-08-10T00:40:35.214Z,66.25
2022-08-10T00:41:27.754Z,66.56
2022-08-10T00:42:26.735Z,66.02
2022-08-10T00:43:26.696Z,66.22
2022-08-10T00:44:26.721Z,67.27
2022-08-10T00:45:26.726Z,66.25
2022-08-10T00:46:26.695Z,67.10
2022-08-10T00:47:37.209Z,67.80
2022-08-10T00:48:28.146Z,68.21
2022-08-10T00:49:26.672Z,68.30
2022-08-10T00:50:26.655Z,67.50
2022-08-10T00:51:40.345Z,67.47
2022-08-10T00:52:27.719Z,67.67
2022-08-10T00:53:26.671Z,67.67
2022-08-10T00:54:26.702Z,67.70
2022-08-10T00:55:26.634Z,69.04
2022-08-10T00:56:39.784Z,68.95
2022-08-10T00:57:27.618Z,68.74
2022-08-10T00:58:26.602Z,69.11
2022-08-10T00:59:26.607Z,68.30
2022-08-10T01:00:26.614Z,67.80
2022-08-10T01:02:09.904Z,67.33
2022-08-10T01:02:27.717Z,68.13
2022-08-10T01:04:58.090Z,69.51
2022-08-10T01:04:58.531Z,69.08
2022-08-10T01:05:27.581Z,69.71
2022-08-10T01:06:26.630Z,69.38
2022-08-10T01:07:26.604Z,67.66
2022-08-10T01:08:26.622Z,68.27
2022-08-10T01:09:26.544Z,67.56
2022-08-10T01:10:26.606Z,69.11
2022-08-10T01:12:38.821Z,69.75
2022-08-10T01:12:39.223Z,69.45
2022-08-10T01:13:27.559Z,70.56
2022-08-10T01:14:26.501Z,70.25
2022-08-10T01:15:26.538Z,70.46
2022-08-10T01:16:26.606Z,71.53
2022-08-10T01:17:49.850Z,70.62
2022-08-10T01:18:27.507Z,71.23
2022-08-10T01:19:26.486Z,70.22
2022-08-10T01:20:30.607Z,68.51
2022-08-10T01:21:26.449Z,67.97
2022-08-10T01:22:26.547Z,68.27
2022-08-10T01:23:26.520Z,69.51
2022-08-10T01:24:26.444Z,69.14
2022-08-10T01:25:26.486Z,69.24
2022-08-10T01:26:31.477Z,70.09
2022-08-10T01:27:27.665Z,70.15
2022-08-10T01:28:26.419Z,68.74
2022-08-10T01:29:26.476Z,70.09
2022-08-10T01:30:26.581Z,70.18
2022-08-10T01:31:26.394Z,70.49
2022-08-10T01:32:26.450Z,70.93
2022-08-10T01:33:57.841Z,71.73
2022-08-10T01:34:27.418Z,73.46
2022-08-10T01:35:26.416Z,72.55
2022-08-10T01:36:32.512Z,72.01
2022-08-10T01:37:27.389Z,73.22
2022-08-10T01:38:27.328Z,72.51
2022-08-10T01:39:26.437Z,71.77
2022-08-10T01:40:26.378Z,70.96
2022-08-10T01:41:26.378Z,70.83
2022-08-10T01:42:26.385Z,70.29
2022-08-10T01:43:26.408Z,70.39
2022-08-10T01:44:26.316Z,69.89
2022-08-10T01:45:26.350Z,69.51
2022-08-10T01:46:26.378Z,70.12
2022-08-10T01:47:26.313Z,70.83
2022-08-10T01:48:27.296Z,71.06
2022-08-10T01:49:26.302Z,70.79
2022-08-10T01:50:26.349Z,70.69
2022-08-10T01:51:26.289Z,71.73
2022-08-10T01:52:26.552Z,71.33
2022-08-10T01:53:26.269Z,71.60
2022-08-10T01:54:26.297Z,70.79
2022-08-10T01:55:26.304Z,71.26
2022-08-10T01:56:26.282Z,70.46
2022-08-10T01:57:26.282Z,70.15
2022-08-10T01:58:26.255Z,70.02
2022-08-10T01:59:26.257Z,70.22
2022-08-10T02:00:26.216Z,69.78
2022-08-10T02:01:26.281Z,70.42
2022-08-10T02:02:26.270Z,69.62
2022-08-10T02:03:26.221Z,69.62
2022-08-10T02:04:26.208Z,69.71
2022-08-10T02:05:26.229Z,70.42
2022-08-10T02:06:26.159Z,69.51
2022-08-10T02:07:26.174Z,69.28
2022-08-10T02:08:26.151Z,68.77
2022-08-10T02:09:26.190Z,67.86
2022-08-10T02:10:26.183Z,67.97
2022-08-10T02:11:26.156Z,68.27
2022-08-10T02:12:27.214Z,68.33
2022-08-10T02:13:26.151Z,67.73
2022-08-10T02:14:26.153Z,68.04
2022-08-10T02:15:27.151Z,67.10
2022-08-10T02:16:26.120Z,66.69
2022-08-10T02:17:59.125Z,66.29
2022-08-10T02:18:27.114Z,66.49
2022-08-10T02:19:26.098Z,66.08
2022-08-10T02:20:26.100Z,66.42
2022-08-10T02:21:27.097Z,67.43
2022-08-10T02:22:37.971Z,67.49
2022-08-10T02:23:27.044Z,68.33
2022-08-10T02:24:26.086Z,69.07
2022-08-10T02:25:41.476Z,69.89
2022-08-10T02:26:27.040Z,69.68
2022-08-10T02:27:26.123Z,69.04
2022-08-10T02:28:30.158Z,68.94
2022-08-10T02:29:26.028Z,69.01
2022-08-10T02:30:26.046Z,70.15
2022-08-10T02:31:26.037Z,70.25
2022-08-10T02:32:38.271Z,70.56
2022-08-10T02:33:27.046Z,70.56
2022-08-10T02:34:26.985Z,71.94
2022-08-10T02:35:26.044Z,73.05
2022-08-10T02:36:26.003Z,73.70
2022-08-10T02:37:25.990Z,73.86
2022-08-10T02:38:58.742Z,73.16
2022-08-10T02:39:26.984Z,72.24
2022-08-10T02:45:01.911Z,72.85
2022-08-10T02:45:12.733Z,72.11
2022-08-10T02:45:18.216Z,71.06
2022-08-10T02:45:19.191Z,70.83
2022-08-10T02:45:27.429Z,71.06
2022-08-10T02:45:30.876Z,69.21
2022-08-10T02:46:26.952Z,69.81
2022-08-10T02:47:25.974Z,69.92
2022-08-10T02:48:25.891Z,71.91
2022-08-10T02:49:25.906Z,73.66
2022-08-10T02:50:25.883Z,73.97
2022-08-10T02:52:07.970Z,73.53
2022-08-10T02:52:26.947Z,72.52
2022-08-10T02:53:56.053Z,73.05
2022-08-10T02:54:26.869Z,72.21
2022-08-10T02:55:26.972Z,70.96
2022-08-10T02:56:25.865Z,71.26
2022-08-10T02:57:25.830Z,71.09
2022-08-10T02:58:25.822Z,71.80
2022-08-10T02:59:25.845Z,71.97
2022-08-10T03:00:25.860Z,71.16
2022-08-10T03:01:25.954Z,71.03
2022-08-10T03:02:25.867Z,69.92
2022-08-10T03:03:25.794Z,68.87
2022-08-10T03:04:55.090Z,68.26
2022-08-10T03:05:26.791Z,68.16
2022-08-10T03:06:25.800Z,68.16
2022-08-10T03:07:42.968Z,68.23
2022-08-10T03:08:26.756Z,68.26
2022-08-10T03:09:25.774Z,69.10
2022-08-10T03:10:25.749Z,70.02
2022-08-10T03:12:35.897Z,70.15
2022-08-10T03:12:38.404Z,70.79
2022-08-10T03:13:26.722Z,71.26
2022-08-10T03:14:25.750Z,69.95
2022-08-10T03:15:25.779Z,69.71
2022-08-10T03:16:25.692Z,71.40
2022-08-10T03:17:26.688Z,71.73
2022-08-10T03:18:25.715Z,72.58
2022-08-10T03:20:33.908Z,72.48
2022-08-10T03:20:38.176Z,72.28
2022-08-10T03:21:26.659Z,72.89
2022-08-10T03:22:25.650Z,72.55
2022-08-10T03:23:25.670Z,72.34
2022-08-10T03:24:32.597Z,71.44
2022-08-10T03:25:26.668Z,71.30
2022-08-10T03:26:25.679Z,72.41
2022-08-10T03:27:25.627Z,71.60
2022-08-10T03:28:25.602Z,71.57
2022-08-10T03:29:25.613Z,70.96
2022-08-10T03:30:33.537Z,71.00
2022-08-10T03:31:26.606Z,71.20
2022-08-10T03:32:25.664Z,71.20
2022-08-10T03:33:25.591Z,72.14
2022-08-10T03:34:33.096Z,71.94
2022-08-10T03:35:26.587Z,71.13
2022-08-10T03:36:43.573Z,70.93
2022-08-10T03:37:26.643Z,71.57
2022-08-10T03:38:25.539Z,73.22
2022-08-10T03:39:25.587Z,73.93
2022-08-10T03:40:25.540Z,74.61
2022-08-10T03:41:26.529Z,74.21
2022-08-10T03:42:25.575Z,73.46
2022-08-10T03:43:25.517Z,74.41
2022-08-10T03:44:25.508Z,76.00
2022-08-10T03:45:25.545Z,76.91
2022-08-10T03:46:25.486Z,76.27
2022-08-10T03:47:25.534Z,74.41
2022-08-10T03:48:32.149Z,73.60
2022-08-10T03:49:26.476Z,73.05
2022-08-10T03:50:46.119Z,72.24
2022-08-10T03:51:26.466Z,72.04
2022-08-10T03:52:25.447Z,72.45
2022-08-10T03:54:03.791Z,72.34
2022-08-10T03:54:26.444Z,73.16
2022-08-10T03:56:27.277Z,72.11
2022-08-10T03:56:28.631Z,71.20
2022-08-10T03:57:25.415Z,70.18
2022-08-10T03:58:25.434Z,70.05
2022-08-10T03:59:25.436Z,69.95
2022-08-10T04:00:25.434Z,69.74
2022-08-10T04:02:45.457Z,69.24
2022-08-10T04:02:46.396Z,69.95
2022-08-10T04:03:29.346Z,68.80
2022-08-10T04:04:25.920Z,69.18
2022-08-10T04:05:25.361Z,68.26
2022-08-10T04:06:26.357Z,67.86
2022-08-10T04:07:25.373Z,67.96
2022-08-10T04:08:25.357Z,67.96
2022-08-10T04:09:42.940Z,68.10
2022-08-10T04:10:26.388Z,67.96
2022-08-10T04:11:25.372Z,67.96
2022-08-10T04:12:25.410Z,67.69
2022-08-10T04:13:25.342Z,69.24
2022-08-10T04:14:47.356Z,69.57
2022-08-10T04:15:26.321Z,69.78
2022-08-10T04:16:25.295Z,69.95
2022-08-10T04:18:01.192Z,68.84
2022-08-10T04:18:26.279Z,69.54
2022-08-10T04:19:25.248Z,68.70
2022-08-10T04:20:25.319Z,68.40
2022-08-10T04:21:25.263Z,67.89
2022-08-10T04:22:25.257Z,67.96
2022-08-10T04:23:25.234Z,67.96
2022-08-10T04:24:30.040Z,67.93
2022-08-10T04:25:26.288Z,69.57
2022-08-10T04:26:25.193Z,70.62
2022-08-10T04:27:25.202Z,71.67
2022-08-10T04:28:25.202Z,70.32
2022-08-10T04:29:25.190Z,70.32
2022-08-10T04:30:25.259Z,70.62
2022-08-10T04:31:25.195Z,71.23
2022-08-10T04:32:25.200Z,70.45
2022-08-10T04:33:25.179Z,68.19
2022-08-10T04:34:25.181Z,67.72
2022-08-10T04:35:25.221Z,65.78
2022-08-10T04:36:25.214Z,65.01
2022-08-10T04:37:25.142Z,63.67
2022-08-10T04:38:25.141Z,63.03
2022-08-10T04:39:25.182Z,61.56
2022-08-10T04:40:29.394Z,61.43
2022-08-10T04:41:25.157Z,59.82
2022-08-10T04:42:25.143Z,59.62
2022-08-10T04:43:25.137Z,59.39
2022-08-10T04:44:25.081Z,59.69
2022-08-10T04:45:25.108Z,59.56
2022-08-10T04:46:42.611Z,58.93
2022-08-10T04:47:57.350Z,58.12
2022-08-10T04:48:40.956Z,58.02
2022-08-10T04:49:53.932Z,58.09
2022-08-10T04:50:26.045Z,57.70
2022-08-10T04:51:25.035Z,57.82
2022-08-10T04:52:25.197Z,59.59
2022-08-10T04:53:26.093Z,60.02
2022-08-10T04:54:25.067Z,59.28
2022-08-10T04:55:25.042Z,58.73
2022-08-10T04:56:31.546Z,57.26
2022-08-10T04:57:26.022Z,56.91
2022-08-10T04:58:25.114Z,56.58
2022-08-10T04:59:25.005Z,55.55
2022-08-10T05:00:24.972Z,54.22
2022-08-10T05:01:25.179Z,53.59
2022-08-10T05:02:29.254Z,52.67
2022-08-10T05:03:25.011Z,53.05
2022-08-10T05:04:34.355Z,52.84
2022-08-10T05:05:25.953Z,52.52
2022-08-10T05:06:24.976Z,51.52
2022-08-10T05:07:24.943Z,51.62
2022-08-10T05:08:24.916Z,50.57
2022-08-10T05:09:24.964Z,50.15
2022-08-10T05:10:24.921Z,49.62
2022-08-10T05:11:24.941Z,49.22
2022-08-10T05:12:24.897Z,49.49
2022-08-10T05:13:24.929Z,50.22
2022-08-10T05:14:24.941Z,50.62
2022-08-10T05:15:24.917Z,50.22
2022-08-10T05:16:32.350Z,51.42
2022-08-10T05:17:25.854Z,53.37
2022-08-10T05:18:24.935Z,53.37
2022-08-10T05:20:04.905Z,52.32
2022-08-10T05:20:26.867Z,52.12
2022-08-10T05:22:02.946Z,50.49
2022-08-10T05:22:25.833Z,50.37
2022-08-10T05:23:24.855Z,50.47
2022-08-10T05:24:24.840Z,50.77
2022-08-10T05:25:24.872Z,51.47
2022-08-10T05:26:24.858Z,50.35
2022-08-10T05:27:24.784Z,51.94
2022-08-10T05:28:24.849Z,49.42
2022-08-10T05:29:25.784Z,50.12
2022-08-10T05:30:24.910Z,49.40
2022-08-10T05:31:24.780Z,49.18
2022-08-10T05:32:24.795Z,48.80
2022-08-10T05:33:24.776Z,49.48
2022-08-10T05:34:24.786Z,49.18
2022-08-10T05:35:24.808Z,48.95
2022-08-10T05:36:24.800Z,49.50
2022-08-10T05:38:12.444Z,49.30
2022-08-10T05:38:25.827Z,49.10
2022-08-10T05:39:28.796Z,49.60
2022-08-10T05:40:25.835Z,49.48
2022-08-10T05:41:24.815Z,49.77
2022-08-10T05:42:24.736Z,49.87
2022-08-10T05:43:24.691Z,50.40
2022-08-10T05:44:24.683Z,49.27
2022-08-10T05:45:24.676Z,50.20
2022-08-10T05:46:24.677Z,49.00
2022-08-10T05:47:24.679Z,49.30
2022-08-10T05:48:55.715Z,49.48
2022-08-10T05:49:25.656Z,49.80
2022-08-10T05:50:24.665Z,50.20
2022-08-10T05:51:24.655Z,49.50
2022-08-10T05:52:24.664Z,49.80
2022-08-10T05:54:02.655Z,51.02
2022-08-10T05:54:25.622Z,50.72
2022-08-10T05:55:24.624Z,50.32
2022-08-10T05:56:24.591Z,50.99
2022-08-10T05:57:24.600Z,51.50
2022-08-10T05:58:24.608Z,50.70
2022-08-10T06:00:33.120Z,50.47
2022-08-10T06:00:37.305Z,50.07
2022-08-10T06:01:25.623Z,50.25
2022-08-10T06:02:32.922Z,50.95
2022-08-10T06:03:25.573Z,50.55
2022-08-10T06:04:24.547Z,49.93
2022-08-10T06:05:24.559Z,49.93
2022-08-10T06:06:25.113Z,49.13
2022-08-10T06:07:25.635Z,48.43
2022-08-10T06:08:24.900Z,49.01
2022-08-10T06:09:24.514Z,48.91
2022-08-10T06:10:31.122Z,48.61
2022-08-10T06:12:27.437Z,49.01
2022-08-10T06:12:28.982Z,48.50
2022-08-10T06:13:29.899Z,48.41
2022-08-10T06:14:28.573Z,48.33
2022-08-10T06:15:51.382Z,48.25
2022-08-10T06:16:25.516Z,50.97
2022-08-10T06:17:24.478Z,51.77
2022-08-10T06:18:24.482Z,53.99
2022-08-10T06:19:24.500Z,54.02
2022-08-10T06:20:24.450Z,54.64
2022-08-10T06:21:24.526Z,55.24
2022-08-10T06:22:24.418Z,54.97
2022-08-10T06:23:24.423Z,54.17
2022-08-10T06:24:25.557Z,55.66
2022-08-10T06:26:11.888Z,56.20
2022-08-10T06:26:26.445Z,56.39
2022-08-10T06:27:34.547Z,57.09
2022-08-10T06:28:25.453Z,56.79
2022-08-10T06:29:24.438Z,56.89
2022-08-10T06:30:24.369Z,55.77
2022-08-10T06:31:24.443Z,55.94
2022-08-10T06:32:24.377Z,54.22
2022-08-10T06:33:24.414Z,53.42
2022-08-10T06:34:24.375Z,53.42
2022-08-10T06:35:24.360Z,53.22
2022-08-10T06:36:24.328Z,53.14
2022-08-10T06:37:25.346Z,52.87
2022-08-10T06:38:24.307Z,53.37
2022-08-10T06:39:36.894Z,52.99
2022-08-10T06:40:26.408Z,54.06
2022-08-10T06:41:24.285Z,53.34
2022-08-10T06:42:25.350Z,53.34
2022-08-10T06:43:24.317Z,53.12
2022-08-10T06:44:24.281Z,53.19
2022-08-10T06:45:24.314Z,52.69
2022-08-10T06:46:24.252Z,51.79
2022-08-10T06:47:24.322Z,51.77
2022-08-10T06:48:24.330Z,51.65
2022-08-10T06:49:24.295Z,51.75
2022-08-10T06:50:44.473Z,49.75
2022-08-10T06:51:25.209Z,49.83
2022-08-10T06:52:24.198Z,49.23
2022-08-10T06:53:24.228Z,49.93
2022-08-10T06:54:25.198Z,50.13
2022-08-10T06:55:39.778Z,49.33
2022-08-10T06:56:35.931Z,48.53
2022-08-10T06:57:25.165Z,49.65
2022-08-10T06:58:26.953Z,49.80
2022-08-10T06:59:24.181Z,51.82
2022-08-10T07:00:24.283Z,50.10
2022-08-10T07:01:25.211Z,48.11
2022-08-10T07:02:24.177Z,49.40
2022-08-10T07:03:24.146Z,49.30
2022-08-10T07:04:32.247Z,49.10
2022-08-10T07:05:25.130Z,48.49
2022-08-10T07:06:24.146Z,48.19
2022-08-10T07:07:24.144Z,47.89
2022-08-10T07:08:24.113Z,45.79
2022-08-10T07:09:24.141Z,48.61
2022-08-10T07:10:24.118Z,48.50
2022-08-10T07:11:24.100Z,48.38
2022-08-10T07:12:24.083Z,46.00
2022-08-10T07:14:14.687Z,47.59
2022-08-10T07:14:25.098Z,46.14
2022-08-10T07:15:24.088Z,48.21
2022-08-10T07:16:25.043Z,47.41
2022-08-10T07:17:24.070Z,47.71
2022-08-10T07:18:24.115Z,48.03
2022-08-10T07:19:24.065Z,48.63
2022-08-10T07:20:24.040Z,47.51
2022-08-10T07:21:24.045Z,47.02
2022-08-10T07:23:54.584Z,46.51
2022-08-10T07:23:57.054Z,48.53
2022-08-10T07:24:25.075Z,46.78
2022-08-10T07:25:24.005Z,48.68
2022-08-10T07:26:24.009Z,48.55
2022-08-10T07:27:23.980Z,47.44
2022-08-10T07:28:23.989Z,46.12
2022-08-10T07:29:52.824Z,46.27
2022-08-10T07:30:24.985Z,46.20
2022-08-10T07:31:55.171Z,46.61
2022-08-10T07:32:24.990Z,46.12
2022-08-10T07:33:23.935Z,46.81
2022-08-10T07:34:29.890Z,47.71
2022-08-10T07:35:24.921Z,47.36
2022-08-10T07:36:23.963Z,48.58
2022-08-10T07:37:23.932Z,48.73
2022-08-10T07:38:23.939Z,47.66
2022-08-10T07:40:02.579Z,47.36
2022-08-10T07:40:24.943Z,47.26
2022-08-10T07:41:23.888Z,47.56
2022-08-10T07:42:23.961Z,48.03
2022-08-10T07:43:23.874Z,47.02
2022-08-10T07:44:23.898Z,46.22
2022-08-10T07:45:23.867Z,48.55
2022-08-10T07:46:23.844Z,47.83
2022-08-10T07:47:52.378Z,47.41
2022-08-10T07:48:25.838Z,47.02
2022-08-10T07:49:23.858Z,46.22
2022-08-10T07:50:23.865Z,47.24
2022-08-10T07:51:23.841Z,46.91
2022-08-10T07:52:23.818Z,47.21
2022-08-10T07:53:23.787Z,46.37
2022-08-10T07:54:23.821Z,46.47
2022-08-10T07:56:05.145Z,45.95
2022-08-10T07:56:47.473Z,45.45
2022-08-10T07:57:31.115Z,46.08
2022-08-10T07:58:24.896Z,45.65
2022-08-10T07:59:23.835Z,45.93
2022-08-10T08:00:23.774Z,44.22
2022-08-10T08:01:23.795Z,44.62
2022-08-10T08:02:23.727Z,45.26
2022-08-10T08:03:23.730Z,46.17
2022-08-10T08:04:23.766Z,45.95
2022-08-10T08:05:54.918Z,44.62
2022-08-10T08:06:24.727Z,44.44
2022-08-10T08:07:23.699Z,45.41
2022-08-10T08:08:23.687Z,44.54
2022-08-10T08:09:23.712Z,45.18
2022-08-10T08:10:23.669Z,45.79
2022-08-10T08:11:26.157Z,46.00
2022-08-10T08:12:23.720Z,45.55
2022-08-10T08:13:23.697Z,45.23
2022-08-10T08:14:23.670Z,45.78
2022-08-10T08:16:19.417Z,47.96
2022-08-10T08:16:24.661Z,45.57
2022-08-10T08:17:23.671Z,44.85
2022-08-10T08:18:25.446Z,44.44
2022-08-10T08:19:30.582Z,45.55
2022-08-10T08:20:25.660Z,45.97
2022-08-10T08:24:05.631Z,44.76
2022-08-10T08:24:05.689Z,45.97
2022-08-10T08:24:07.955Z,46.39
2022-08-10T08:24:30.122Z,45.01
2022-08-10T08:25:24.616Z,44.70
2022-08-10T08:26:23.664Z,44.48
2022-08-10T08:27:23.587Z,43.38
2022-08-10T08:28:23.593Z,43.46
2022-08-10T08:29:23.604Z,43.76
2022-08-10T08:30:27.047Z,43.26
2022-08-10T08:31:23.550Z,43.96
2022-08-10T08:32:24.602Z,43.04
2022-08-10T08:33:41.689Z,42.52
2022-08-10T08:34:24.538Z,42.31
2022-08-10T08:35:23.660Z,42.88
2022-08-10T08:36:23.549Z,40.78
2022-08-10T08:38:32.004Z,40.68
2022-08-10T08:38:32.893Z,41.26
2022-08-10T08:39:24.581Z,43.30
2022-08-10T08:40:23.563Z,44.10
2022-08-10T08:41:23.505Z,43.68
2022-08-10T08:42:23.541Z,43.06
2022-08-10T08:43:26.299Z,43.46
2022-08-10T08:44:24.504Z,42.66
2022-08-10T08:45:23.508Z,43.66
2022-08-10T08:46:23.466Z,42.74
2022-08-10T08:48:03.595Z,42.92
2022-08-10T08:48:24.514Z,41.53
2022-08-10T08:50:08.449Z,41.52
2022-08-10T08:50:24.513Z,41.60
2022-08-10T08:52:09.927Z,40.94
2022-08-10T08:52:24.478Z,42.37
2022-08-10T08:53:23.451Z,42.45
2022-08-10T08:54:23.419Z,42.65
2022-08-10T08:56:03.324Z,41.24
2022-08-10T08:56:24.519Z,41.71
2022-08-10T08:57:47.997Z,41.52
2022-08-10T08:58:24.429Z,41.89
2022-08-10T08:59:23.411Z,40.94
2022-08-10T09:00:23.662Z,42.52
2022-08-10T09:01:23.470Z,40.92
2022-08-10T09:02:24.382Z,41.52
2022-08-10T09:03:27.932Z,42.90
2022-08-10T09:04:25.431Z,41.39
2022-08-10T09:05:23.378Z,40.29
2022-08-10T09:06:23.395Z,40.39
2022-08-10T09:07:59.032Z,39.79
2022-08-10T09:08:24.415Z,40.92
2022-08-10T09:09:24.317Z,41.53
2022-08-10T09:10:23.338Z,40.55
2022-08-10T09:11:23.300Z,40.56
2022-08-10T09:12:23.364Z,42.77
2022-08-10T09:13:23.319Z,43.34
2022-08-10T09:14:25.660Z,42.72
2022-08-10T09:15:39.597Z,41.73
2022-08-10T09:16:24.337Z,40.90
2022-08-10T09:17:23.344Z,40.94
2022-08-10T09:18:23.260Z,40.55
2022-08-10T09:19:36.485Z,42.60
2022-08-10T09:20:24.249Z,40.29
2022-08-10T09:21:23.299Z,39.36
2022-08-10T09:22:23.267Z,40.58
2022-08-10T09:23:23.249Z,39.79
2022-08-10T09:24:24.297Z,40.78
2022-08-10T09:25:23.234Z,39.48
2022-08-10T09:26:23.287Z,39.83
2022-08-10T09:27:23.233Z,39.14
2022-08-10T09:28:26.805Z,38.63
2022-08-10T09:29:23.231Z,38.19
2022-08-10T09:30:29.102Z,38.37
2022-08-10T09:31:25.866Z,39.00
2022-08-10T09:36:13.601Z,40.72
2022-08-10T09:36:20.906Z,40.60
2022-08-10T09:36:22.618Z,39.61
2022-08-10T09:36:26.781Z,39.51
2022-08-10T09:36:32.971Z,39.87
2022-08-10T09:38:01.405Z,38.68
2022-08-10T09:38:24.215Z,39.40
2022-08-10T09:40:12.686Z,38.98
2022-08-10T09:41:00.229Z,38.94
2022-08-10T09:41:24.345Z,38.57
2022-08-10T09:42:23.138Z,37.89
2022-08-10T09:43:25.478Z,39.20
2022-08-10T09:44:24.156Z,39.20
2022-08-10T09:45:23.180Z,38.15
2022-08-10T09:46:23.117Z,36.85
2022-08-10T09:47:23.079Z,36.95
2022-08-10T09:48:24.107Z,37.24
2022-08-10T09:49:52.914Z,37.16
2022-08-10T09:50:24.084Z,36.59
2022-08-10T09:51:44.173Z,36.77
2022-08-10T09:52:25.034Z,35.38
2022-08-10T09:53:23.041Z,34.89
2022-08-10T09:54:23.051Z,35.49
2022-08-10T09:55:23.167Z,36.51
2022-08-10T09:56:28.579Z,36.24
2022-08-10T09:57:44.016Z,38.13
2022-08-10T09:58:25.022Z,37.10
2022-08-10T09:59:59.162Z,37.48
2022-08-10T10:00:24.001Z,36.55
2022-08-10T10:02:00.308Z,34.78
2022-08-10T10:02:24.009Z,35.57
2022-08-10T10:03:26.010Z,36.29
2022-08-10T10:04:23.991Z,35.09
2022-08-10T10:05:22.962Z,35.88
2022-08-10T10:06:22.981Z,35.96
2022-08-10T10:07:22.981Z,35.64
2022-08-10T10:08:23.031Z,35.02
2022-08-10T10:09:26.971Z,33.92
2022-08-10T10:10:22.963Z,33.61
2022-08-10T10:11:22.963Z,33.49
2022-08-10T10:12:22.931Z,32.64
2022-08-10T10:13:50.078Z,34.55
2022-08-10T10:14:23.971Z,34.69
2022-08-10T10:15:24.391Z,35.07
2022-08-10T10:16:22.895Z,35.17
2022-08-10T10:17:22.912Z,36.42
2022-08-10T10:18:22.902Z,34.25
2022-08-10T10:19:22.897Z,35.14
2022-08-10T10:20:22.875Z,34.05
2022-08-10T10:21:23.981Z,33.26
2022-08-10T10:22:23.877Z,35.31
2022-08-10T10:23:22.933Z,33.85
2022-08-10T10:24:23.080Z,33.65
2022-08-10T10:25:23.853Z,33.16
2022-08-10T10:26:23.895Z,33.85
2022-08-10T10:27:22.880Z,33.97
2022-08-10T10:28:22.867Z,34.00
2022-08-10T10:29:57.129Z,34.10
2022-08-10T10:30:24.872Z,34.71
2022-08-10T10:31:22.899Z,36.46
2022-08-10T10:32:22.807Z,33.85
2022-08-10T10:33:22.836Z,33.28
2022-08-10T10:34:23.928Z,33.37
2022-08-10T10:35:22.833Z,34.91
2022-08-10T10:36:22.822Z,35.89
2022-08-10T10:38:01.318Z,34.38
2022-08-10T10:38:23.787Z,35.04
2022-08-10T10:39:24.135Z,32.84
2022-08-10T10:40:23.747Z,33.16
2022-08-10T10:41:22.749Z,33.47
2022-08-10T10:42:44.334Z,33.36
2022-08-10T10:43:24.828Z,32.26
2022-08-10T10:44:22.799Z,33.03
2022-08-10T10:45:22.858Z,32.16
2022-08-10T10:46:22.735Z,33.46
2022-08-10T10:47:22.715Z,33.94
2022-08-10T10:48:29.083Z,32.93
2022-08-10T10:49:23.689Z,32.23
2022-08-10T10:50:22.670Z,32.34
2022-08-10T10:51:22.716Z,32.84
2022-08-10T10:52:22.713Z,32.35
2022-08-10T10:53:22.685Z,33.56
2022-08-10T10:54:22.664Z,34.72
2022-08-10T10:55:22.666Z,33.84
2022-08-10T10:56:22.750Z,32.23
2022-08-10T10:57:22.857Z,32.16
2022-08-10T10:58:27.879Z,32.35
2022-08-10T10:59:54.895Z,32.77
2022-08-10T11:00:23.656Z,33.44
2022-08-10T11:01:22.680Z,32.26
2022-08-10T11:02:22.649Z,32.18
2022-08-10T11:03:22.604Z,32.29
2022-08-10T11:04:22.577Z,33.15
2022-08-10T11:05:22.611Z,31.93
2022-08-10T11:06:27.278Z,32.35
2022-08-10T11:07:23.861Z,31.67
2022-08-10T11:08:29.205Z,32.65
2022-08-10T11:10:03.349Z,31.73
2022-08-10T11:10:33.805Z,31.92
2022-08-10T11:12:01.372Z,32.64
2022-08-10T11:12:26.259Z,32.56
2022-08-10T11:14:25.776Z,33.53
2022-08-10T11:14:29.341Z,33.42
2022-08-10T11:15:23.627Z,32.93
2022-08-10T11:16:22.559Z,33.36
2022-08-10T11:17:22.544Z,33.84
2022-08-10T11:18:22.508Z,34.64
2022-08-10T11:19:22.538Z,33.75
2022-08-10T11:20:22.489Z,33.28
2022-08-10T11:21:22.523Z,33.77
2022-08-10T11:22:22.488Z,33.18
2022-08-10T11:23:22.487Z,33.59
2022-08-10T11:24:47.784Z,33.67
2022-08-10T11:25:23.459Z,33.44
2022-08-10T11:26:22.467Z,33.11
2022-08-10T11:27:22.607Z,32.60
2022-08-10T11:28:22.430Z,31.72
2022-08-10T11:29:22.414Z,32.03
2022-08-10T11:30:22.427Z,32.84
2022-08-10T11:31:22.410Z,32.70
2022-08-10T11:32:22.498Z,32.47
2022-08-10T11:33:32.584Z,32.90
2022-08-10T11:34:47.729Z,33.49
2022-08-10T11:35:23.458Z,32.37
2022-08-10T11:36:22.410Z,32.39
2022-08-10T11:37:22.376Z,32.87
2022-08-10T11:38:31.264Z,32.75
2022-08-10T11:39:24.403Z,32.06
2022-08-10T11:40:22.338Z,31.75
2022-08-10T11:42:10.149Z,31.65
2022-08-10T11:42:33.203Z,32.42
2022-08-10T11:43:24.386Z,30.76
2022-08-10T11:44:22.309Z,30.58
2022-08-10T11:45:22.335Z,31.47
2022-08-10T11:46:28.526Z,32.14
2022-08-10T11:47:24.344Z,32.52
2022-08-10T11:48:53.559Z,32.52
2022-08-10T11:49:23.387Z,30.75
2022-08-10T11:50:22.314Z,31.75
2022-08-10T11:51:22.272Z,32.32
2022-08-10T11:52:22.293Z,30.93
2022-08-10T11:53:22.308Z,31.03
2022-08-10T11:54:22.272Z,31.42
2022-08-10T11:55:22.253Z,31.86
2022-08-10T11:56:22.281Z,30.91
2022-08-10T11:57:22.247Z,32.19
2022-08-10T11:58:22.281Z,32.77
2022-08-10T11:59:22.237Z,30.88
2022-08-10T12:00:22.227Z,31.86
2022-08-10T12:01:22.235Z,31.26
2022-08-10T12:02:22.237Z,31.04
2022-08-10T12:03:22.231Z,31.83
2022-08-10T12:04:22.195Z,32.31
2022-08-10T12:05:22.225Z,32.21
2022-08-10T12:06:53.718Z,31.80
2022-08-10T12:10:03.890Z,31.59
2022-08-10T12:10:04.375Z,30.60
2022-08-10T12:10:10.583Z,31.20
2022-08-10T12:10:24.197Z,31.70
2022-08-10T12:11:24.478Z,31.21
2022-08-10T12:12:22.145Z,32.18
2022-08-10T12:13:22.175Z,30.40
2022-08-10T12:14:23.044Z,31.00
2022-08-10T12:15:23.138Z,30.91
2022-08-10T12:16:22.211Z,31.39
2022-08-10T12:17:22.107Z,30.88
2022-08-10T12:18:22.195Z,31.09
2022-08-10T12:19:22.174Z,31.31
2022-08-10T12:20:22.122Z,30.52
2022-08-10T12:21:22.431Z,31.41
2022-08-10T12:22:22.067Z,32.28
2022-08-10T12:23:22.069Z,30.40
2022-08-10T12:24:22.068Z,31.49
2022-08-10T12:25:57.691Z,31.79
2022-08-10T12:26:23.052Z,31.00
2022-08-10T12:27:22.024Z,30.71
2022-08-10T12:28:22.034Z,31.79
2022-08-10T12:29:25.392Z,31.70
2022-08-10T12:30:23.045Z,30.80
2022-08-10T12:31:21.992Z,31.79
2022-08-10T12:32:24.712Z,30.41
2022-08-10T12:33:22.006Z,30.06
2022-08-10T12:34:21.990Z,31.44
2022-08-10T12:35:25.990Z,30.75
2022-08-10T12:36:21.991Z,32.00
2022-08-10T12:37:22.026Z,31.11
2022-08-10T12:38:21.992Z,30.11
2022-08-10T12:39:22.046Z,30.79
2022-08-10T12:40:35.018Z,30.10
2022-08-10T12:41:44.032Z,30.30
2022-08-10T12:42:38.808Z,30.85
2022-08-10T12:44:04.219Z,31.65
2022-08-10T12:44:22.934Z,32.42
2022-08-10T12:45:22.895Z,30.65
2022-08-10T12:46:21.990Z,30.85
2022-08-10T12:47:21.896Z,31.23
2022-08-10T12:48:21.874Z,31.01
2022-08-10T12:49:21.898Z,30.03
2022-08-10T12:50:33.470Z,30.22
2022-08-10T12:51:22.941Z,30.15
2022-08-10T12:52:21.883Z,30.45